Montross, Virginia
Current Conditions -  °F | °C
As of 11:35 AM on Friday 31 Oct 2014 (Local Time) from KXSA Reporting Station
Clear Clear  
Wind Chill: 56°   Ceiling: Unl
Heat Index: 56°   Visibility: 10mi
Dew Point: 42°   Wind: 3mph
Humidity: 60%   Direction: 360°N
Pressure: 29.95"   Gusts: NA
Location:  38.1°N, 76.83°W
Report Text: KXSA 311535Z AUTO 36003KT 10SM CLR 13/05 A2995 RMK AO2 T01310054
Loading
Personal Weather Stations






























Interactive Weather Map
Tropical Storm Tracking
New forecast layout! Learn more

10-Day Weather Forecast

Advertisements
Track Severe Weather on mobile